createdAt,value
2022-12-07T00:01:08.886Z,16.70
2022-12-07T00:02:42.258Z,13.90
2022-12-07T00:04:18.487Z,13.88
2022-12-07T00:05:51.654Z,13.77
2022-12-07T00:07:27.972Z,16.60
2022-12-07T00:09:03.451Z,18.38
2022-12-07T00:10:37.438Z,16.17
2022-12-07T00:12:10.994Z,17.67
2022-12-07T00:13:50.570Z,15.45
2022-12-07T00:15:24.108Z,16.52
2022-12-07T00:16:58.389Z,15.73
2022-12-07T00:18:31.795Z,20.98
2022-12-07T00:20:05.840Z,21.27
2022-12-07T00:21:39.314Z,18.45
2022-12-07T00:23:12.961Z,17.80
2022-12-07T00:24:47.982Z,17.33
2022-12-07T00:26:24.075Z,18.85
2022-12-07T00:27:58.928Z,18.70
2022-12-07T00:29:32.453Z,14.68
2022-12-07T00:31:06.794Z,20.15
2022-12-07T00:32:40.410Z,21.63
2022-12-07T00:34:17.070Z,16.63
2022-12-07T00:35:57.681Z,20.77
2022-12-07T00:37:31.320Z,20.05
2022-12-07T00:39:05.193Z,13.77
2022-12-07T00:40:40.751Z,16.20
2022-12-07T00:42:13.972Z,14.35
2022-12-07T00:43:48.044Z,20.77
2022-12-07T00:45:21.274Z,21.42
2022-12-07T00:46:55.095Z,20.25
2022-12-07T00:48:28.949Z,14.85
2022-12-07T00:50:02.240Z,18.85
2022-12-07T00:51:36.642Z,17.00
2022-12-07T00:53:10.302Z,15.70
2022-12-07T00:54:43.817Z,13.88
2022-12-07T00:56:21.587Z,14.23
2022-12-07T00:57:55.010Z,15.38
2022-12-07T00:59:28.968Z,17.05
2022-12-07T01:01:03.531Z,15.88
2022-12-07T01:02:36.804Z,16.08
2022-12-07T01:04:10.464Z,18.83
2022-12-07T01:05:52.151Z,19.85
2022-12-07T01:07:25.849Z,16.90
2022-12-07T01:08:59.577Z,15.60
2022-12-07T01:10:33.198Z,28.73
2022-12-07T01:12:08.255Z,23.67
2022-12-07T01:13:41.982Z,19.98
2022-12-07T01:15:15.203Z,19.38
2022-12-07T01:16:48.620Z,21.90
2022-12-07T01:18:21.930Z,17.77
2022-12-07T01:19:55.423Z,16.13
2022-12-07T01:21:31.224Z,18.30
2022-12-07T01:23:04.435Z,17.30
2022-12-07T01:24:41.140Z,15.48
2022-12-07T01:26:16.398Z,20.42
2022-12-07T01:27:51.423Z,21.55
2022-12-07T01:29:24.715Z,14.98
2022-12-07T01:31:03.883Z,18.35
2022-12-07T01:32:37.172Z,17.58
2022-12-07T01:34:15.988Z,18.02
2022-12-07T01:35:48.328Z,16.00
2022-12-07T01:37:22.144Z,21.02
2022-12-07T01:38:58.527Z,21.10
2022-12-07T01:40:32.424Z,19.75
2022-12-07T01:42:06.323Z,18.75
2022-12-07T01:44:16.020Z,21.92
2022-12-07T01:45:49.547Z,16.02
2022-12-07T01:47:23.077Z,21.20
2022-12-07T01:48:56.183Z,19.40
2022-12-07T01:50:32.985Z,19.42
2022-12-07T01:52:17.239Z,18.27
2022-12-07T01:53:49.551Z,19.60
2022-12-07T01:55:22.860Z,18.85
2022-12-07T01:56:59.871Z,15.70
2022-12-07T01:58:33.886Z,16.58
2022-12-07T02:00:12.013Z,16.77
2022-12-07T02:01:48.661Z,20.05
2022-12-07T02:03:27.967Z,21.85
2022-12-07T02:05:03.194Z,20.05
2022-12-07T02:06:37.978Z,19.27
2022-12-07T02:08:13.576Z,18.63
2022-12-07T02:09:47.140Z,23.85
2022-12-07T02:11:21.766Z,61.08
2022-12-07T02:12:59.281Z,39.33
2022-12-07T02:14:33.363Z,34.17
2022-12-07T02:16:24.501Z,45.13
2022-12-07T02:18:07.065Z,30.88
2022-12-07T02:20:13.942Z,25.08
2022-12-07T02:21:52.786Z,46.42
2022-12-07T02:23:44.262Z,33.38
2022-12-07T02:25:25.910Z,30.35
2022-12-07T02:27:26.084Z,30.27
2022-12-07T02:29:16.508Z,30.00
2022-12-07T02:30:52.474Z,24.98
2022-12-07T02:32:29.309Z,23.98
2022-12-07T02:34:09.943Z,26.90
2022-12-07T02:35:46.404Z,25.45
2022-12-07T02:37:40.035Z,31.65
2022-12-07T02:39:20.151Z,28.77
2022-12-07T02:40:57.198Z,24.75
2022-12-07T02:42:37.060Z,27.55
2022-12-07T02:44:16.798Z,23.92
2022-12-07T02:45:52.859Z,22.98
2022-12-07T02:47:26.126Z,25.88
2022-12-07T02:49:01.373Z,21.15
2022-12-07T02:50:35.050Z,27.52
2022-12-07T02:52:09.152Z,24.60
2022-12-07T02:53:45.673Z,29.98
2022-12-07T02:55:23.283Z,25.20
2022-12-07T02:57:09.022Z,26.65
2022-12-07T02:58:53.080Z,25.75
2022-12-07T03:00:28.519Z,28.48
2022-12-07T03:02:13.745Z,25.70
2022-12-07T03:03:58.989Z,27.23
2022-12-07T03:05:51.659Z,24.90
2022-12-07T03:07:36.620Z,25.02
2022-12-07T03:09:17.284Z,23.83
2022-12-07T03:10:57.736Z,27.67
2022-12-07T03:12:36.531Z,24.65
2022-12-07T03:14:20.224Z,27.63
2022-12-07T03:16:04.189Z,29.75
2022-12-07T03:17:42.407Z,26.02
2022-12-07T03:19:20.085Z,27.08
2022-12-07T03:20:56.711Z,23.35
2022-12-07T03:22:35.294Z,28.02
2022-12-07T03:24:14.299Z,25.17
2022-12-07T03:25:55.732Z,29.67
2022-12-07T03:27:38.604Z,29.42
2022-12-07T03:29:20.167Z,27.58
2022-12-07T03:30:59.930Z,26.13
2022-12-07T03:32:39.767Z,35.90
2022-12-07T03:34:21.423Z,29.33
2022-12-07T03:36:02.973Z,27.40
2022-12-07T03:37:42.274Z,29.88
2022-12-07T03:39:26.467Z,24.33
2022-12-07T03:41:04.540Z,28.73
2022-12-07T03:42:38.199Z,30.80
2022-12-07T03:44:12.248Z,29.98
2022-12-07T03:45:52.743Z,28.90
2022-12-07T03:47:33.917Z,25.75
2022-12-07T03:49:15.621Z,40.78
2022-12-07T03:50:54.824Z,35.65
2022-12-07T03:52:34.233Z,28.80
2022-12-07T03:54:13.986Z,66.18
2022-12-07T03:55:49.335Z,69.97
2022-12-07T03:57:25.406Z,34.42
2022-12-07T03:58:57.603Z,28.17
2022-12-07T04:00:31.701Z,31.60
2022-12-07T04:02:07.985Z,33.03
2022-12-07T04:03:42.875Z,34.80
2022-12-07T04:05:16.118Z,34.05
2022-12-07T04:06:49.536Z,33.20
2022-12-07T04:08:23.294Z,37.30
2022-12-07T04:09:57.694Z,31.60
2022-12-07T04:11:31.022Z,31.08
2022-12-07T04:13:04.972Z,29.02
2022-12-07T04:14:37.925Z,28.30
2022-12-07T04:16:11.834Z,25.92
2022-12-07T04:17:45.745Z,32.65
2022-12-07T04:19:22.876Z,30.60
2022-12-07T04:20:56.507Z,28.98
2022-12-07T04:22:29.759Z,31.45
2022-12-07T04:24:03.026Z,30.27
2022-12-07T04:25:36.174Z,32.80
2022-12-07T04:27:10.022Z,34.15
2022-12-07T04:28:43.419Z,27.70
2022-12-07T04:30:16.883Z,30.23
2022-12-07T04:31:50.250Z,44.70
2022-12-07T04:33:23.938Z,85.05
2022-12-07T04:34:59.576Z,30.52
2022-12-07T04:36:33.687Z,28.27
2022-12-07T04:38:07.502Z,27.38
2022-12-07T04:39:39.747Z,66.20
2022-12-07T04:41:13.208Z,45.70
2022-12-07T04:42:47.386Z,26.42
2022-12-07T04:44:22.409Z,30.00
2022-12-07T04:45:54.751Z,23.80
2022-12-07T04:47:28.189Z,29.63
2022-12-07T04:49:01.729Z,30.25
2022-12-07T04:50:44.603Z,24.98
2022-12-07T04:52:19.427Z,23.10
2022-12-07T04:53:52.126Z,31.05
2022-12-07T04:55:25.872Z,35.28
2022-12-07T04:56:59.843Z,32.35
2022-12-07T04:58:33.683Z,35.63
2022-12-07T05:00:07.547Z,43.45
2022-12-07T05:01:41.478Z,43.60
2022-12-07T05:03:15.128Z,42.88
2022-12-07T05:04:48.327Z,41.40
2022-12-07T05:06:22.714Z,56.67
2022-12-07T05:07:56.011Z,53.42
2022-12-07T05:09:29.196Z,46.83
2022-12-07T05:11:03.846Z,48.17
2022-12-07T05:12:37.132Z,43.75
2022-12-07T05:14:15.001Z,39.55
2022-12-07T05:15:49.647Z,34.60
2022-12-07T05:17:23.520Z,42.35
2022-12-07T05:18:59.190Z,42.25
2022-12-07T05:20:35.502Z,27.80
2022-12-07T05:22:14.893Z,22.55
2022-12-07T05:23:49.241Z,19.50
2022-12-07T05:25:22.370Z,19.05
2022-12-07T05:26:55.898Z,18.25
2022-12-07T05:28:29.409Z,30.75
2022-12-07T05:30:03.311Z,103.32
2022-12-07T05:31:37.055Z,92.93
2022-12-07T05:33:10.746Z,69.35
2022-12-07T05:34:44.217Z,27.65
2022-12-07T05:36:17.647Z,28.08
2022-12-07T05:37:52.398Z,20.25
2022-12-07T05:39:25.803Z,20.85
2022-12-07T05:41:03.183Z,32.35
2022-12-07T05:42:36.023Z,27.35
2022-12-07T05:44:09.746Z,38.35
2022-12-07T05:45:43.115Z,29.05
2022-12-07T05:47:18.124Z,34.08
2022-12-07T05:48:51.926Z,32.92
2022-12-07T05:50:25.131Z,30.77
2022-12-07T05:52:07.608Z,25.85
2022-12-07T05:53:42.572Z,24.67
2022-12-07T05:55:16.149Z,29.27
2022-12-07T05:56:49.375Z,25.50
2022-12-07T05:58:40.158Z,30.38
2022-12-07T06:00:14.855Z,22.33
2022-12-07T06:01:49.238Z,20.92
2022-12-07T06:03:23.066Z,22.15
2022-12-07T06:04:56.302Z,20.42
2022-12-07T06:06:28.952Z,21.33
2022-12-07T06:08:05.851Z,27.85
2022-12-07T06:09:40.872Z,25.80
2022-12-07T06:11:31.610Z,25.55
2022-12-07T06:13:05.250Z,23.27
2022-12-07T06:14:38.878Z,45.88
2022-12-07T06:16:13.148Z,41.08
2022-12-07T06:17:46.531Z,37.03
2022-12-07T06:19:20.425Z,34.05
2022-12-07T06:20:54.052Z,18.48
2022-12-07T06:22:27.192Z,24.13
2022-12-07T06:24:00.943Z,25.67
2022-12-07T06:25:36.811Z,20.67
2022-12-07T06:27:10.855Z,22.88
2022-12-07T06:28:44.246Z,20.02
2022-12-07T06:30:17.780Z,18.98
2022-12-07T06:31:52.397Z,24.83
2022-12-07T06:33:25.700Z,20.50
2022-12-07T06:34:59.459Z,22.02
2022-12-07T06:36:33.066Z,17.80
2022-12-07T06:38:06.923Z,19.92
2022-12-07T06:39:40.534Z,24.10
2022-12-07T06:41:15.394Z,19.40
2022-12-07T06:42:49.390Z,22.25
2022-12-07T06:44:24.382Z,18.58
2022-12-07T06:45:58.302Z,22.13
2022-12-07T06:47:40.547Z,30.33
2022-12-07T06:49:15.858Z,26.55
2022-12-07T06:50:54.801Z,27.83
2022-12-07T06:52:28.810Z,23.77
2022-12-07T06:54:02.253Z,23.05
2022-12-07T06:55:35.914Z,25.45
2022-12-07T06:57:10.993Z,33.03
2022-12-07T06:58:44.250Z,31.77
2022-12-07T07:00:21.822Z,29.45
2022-12-07T07:01:56.470Z,26.83
2022-12-07T07:03:29.801Z,33.65
2022-12-07T07:05:04.011Z,27.10
2022-12-07T07:06:37.247Z,29.67
2022-12-07T07:08:26.563Z,26.73
2022-12-07T07:10:00.444Z,28.88
2022-12-07T07:11:34.470Z,32.08
2022-12-07T07:13:09.922Z,34.63
2022-12-07T07:14:44.106Z,30.33
2022-12-07T07:16:18.053Z,32.88
2022-12-07T07:17:51.793Z,33.50
2022-12-07T07:19:25.260Z,34.28
2022-12-07T07:20:59.052Z,33.72
2022-12-07T07:22:32.929Z,26.65
2022-12-07T07:24:06.940Z,36.08
2022-12-07T07:25:41.098Z,27.05
2022-12-07T07:27:15.087Z,23.88
2022-12-07T07:28:49.969Z,25.25
2022-12-07T07:30:24.003Z,31.67
2022-12-07T07:31:59.557Z,28.40
2022-12-07T07:33:37.191Z,32.60
2022-12-07T07:35:10.965Z,29.17
2022-12-07T07:36:44.524Z,34.33
2022-12-07T07:38:17.705Z,36.60
2022-12-07T07:39:51.250Z,39.58
2022-12-07T07:41:24.582Z,34.10
2022-12-07T07:42:58.553Z,32.55
2022-12-07T07:44:35.336Z,33.08
2022-12-07T07:46:09.608Z,31.08
2022-12-07T07:47:43.140Z,33.65
2022-12-07T07:49:16.766Z,28.88
2022-12-07T07:50:49.937Z,29.83
2022-12-07T07:52:23.234Z,37.00
2022-12-07T07:53:57.089Z,43.95
2022-12-07T07:55:31.157Z,38.30
2022-12-07T07:57:04.832Z,42.28
2022-12-07T07:58:40.323Z,48.40
2022-12-07T08:00:17.783Z,43.03
2022-12-07T08:01:51.263Z,36.30
2022-12-07T08:03:24.509Z,34.33
2022-12-07T08:04:58.343Z,37.67
2022-12-07T08:06:32.792Z,31.50
2022-12-07T08:08:06.473Z,40.30
2022-12-07T08:09:40.269Z,34.17
2022-12-07T08:11:14.703Z,33.58
2022-12-07T08:13:05.694Z,30.45
2022-12-07T08:14:38.887Z,32.60
2022-12-07T08:16:16.562Z,39.47
2022-12-07T08:17:49.877Z,35.53
2022-12-07T08:19:23.409Z,34.33
2022-12-07T08:21:01.408Z,33.40
2022-12-07T08:22:35.138Z,35.28
2022-12-07T08:24:11.649Z,35.38
2022-12-07T08:25:45.265Z,34.40
2022-12-07T08:27:19.616Z,38.38
2022-12-07T08:28:52.767Z,34.63
2022-12-07T08:30:26.616Z,34.47
2022-12-07T08:32:07.943Z,38.53
2022-12-07T08:33:45.218Z,38.75
2022-12-07T08:35:18.810Z,39.42
2022-12-07T08:36:53.028Z,43.20
2022-12-07T08:38:31.569Z,38.65
2022-12-07T08:40:06.737Z,39.90
2022-12-07T08:41:40.235Z,44.63
2022-12-07T08:43:13.632Z,41.55
2022-12-07T08:44:48.413Z,45.05
2022-12-07T08:46:28.690Z,37.38
2022-12-07T08:48:08.597Z,40.55
2022-12-07T08:49:45.024Z,42.20
2022-12-07T08:51:18.987Z,41.75
2022-12-07T08:52:55.395Z,39.22
2022-12-07T08:54:30.720Z,36.80
2022-12-07T08:56:04.469Z,41.92
2022-12-07T08:57:38.674Z,41.17
2022-12-07T08:59:14.813Z,45.78
2022-12-07T09:00:48.060Z,45.92
2022-12-07T09:02:22.067Z,45.90
2022-12-07T09:03:56.934Z,44.63
2022-12-07T09:05:30.997Z,39.90
2022-12-07T09:07:05.114Z,38.03
2022-12-07T09:08:43.627Z,35.25
2022-12-07T09:10:17.359Z,36.28
2022-12-07T09:11:50.788Z,36.85
2022-12-07T09:13:24.545Z,33.38
2022-12-07T09:14:58.068Z,38.55
2022-12-07T09:16:32.086Z,40.33
2022-12-07T09:18:05.673Z,38.65
2022-12-07T09:19:42.566Z,36.67
2022-12-07T09:21:16.531Z,39.92
2022-12-07T09:22:51.103Z,37.80
2022-12-07T09:24:25.512Z,37.22
2022-12-07T09:26:07.431Z,35.20
2022-12-07T09:27:43.952Z,40.13
2022-12-07T09:29:17.750Z,38.70
2022-12-07T09:31:22.260Z,38.08
2022-12-07T09:32:45.447Z,38.17
2022-12-07T09:34:19.207Z,41.95
2022-12-07T09:35:55.728Z,43.85
2022-12-07T09:37:28.925Z,47.30
2022-12-07T09:39:02.771Z,39.00
2022-12-07T09:40:36.130Z,42.63
2022-12-07T09:42:12.134Z,39.50
2022-12-07T09:43:46.761Z,37.22
2022-12-07T09:45:24.721Z,38.28
2022-12-07T09:47:00.380Z,39.00
2022-12-07T09:48:37.948Z,30.27
2022-12-07T09:50:17.652Z,32.38
2022-12-07T09:52:03.164Z,24.60
2022-12-07T09:53:39.112Z,27.77
2022-12-07T09:55:15.454Z,29.20
2022-12-07T09:56:48.756Z,27.58
2022-12-07T09:58:27.398Z,30.45
2022-12-07T10:00:04.523Z,25.17
2022-12-07T10:01:41.600Z,26.58
2022-12-07T10:03:15.809Z,29.95
2022-12-07T10:04:49.545Z,24.77
2022-12-07T10:06:23.036Z,31.58
2022-12-07T10:07:57.964Z,23.83
2022-12-07T10:09:35.865Z,24.10
2022-12-07T10:11:11.700Z,21.63
2022-12-07T10:13:00.256Z,37.20
2022-12-07T10:15:06.789Z,28.25
2022-12-07T10:16:41.191Z,31.52
2022-12-07T10:18:34.218Z,26.48
2022-12-07T10:20:21.185Z,34.63
2022-12-07T10:22:08.290Z,25.85
2022-12-07T10:23:44.845Z,30.23
2022-12-07T10:25:22.249Z,24.63
2022-12-07T10:26:56.635Z,31.23
2022-12-07T10:28:42.084Z,36.65
2022-12-07T10:30:17.567Z,34.33
2022-12-07T10:31:58.812Z,30.38
2022-12-07T10:33:35.153Z,30.42
2022-12-07T10:35:25.443Z,31.65
2022-12-07T10:37:17.463Z,29.58
2022-12-07T10:38:55.709Z,35.80
2022-12-07T10:40:32.554Z,35.75
2022-12-07T10:42:07.125Z,34.95
2022-12-07T10:43:49.885Z,32.15
2022-12-07T10:45:26.157Z,41.08
2022-12-07T10:47:12.312Z,52.85
2022-12-07T10:48:58.388Z,34.10
2022-12-07T10:50:59.149Z,29.80
2022-12-07T10:52:47.816Z,36.53
2022-12-07T10:54:30.560Z,36.15
2022-12-07T10:56:29.938Z,34.85
2022-12-07T10:58:30.427Z,29.90
2022-12-07T11:00:13.679Z,27.58
2022-12-07T11:01:57.091Z,25.30
2022-12-07T11:03:56.159Z,29.08
2022-12-07T11:05:39.911Z,24.17
2022-12-07T11:07:21.324Z,19.52
2022-12-07T11:09:29.247Z,20.67
2022-12-07T11:11:19.028Z,22.48
2022-12-07T11:13:11.427Z,17.67
2022-12-07T11:14:55.560Z,21.02
2022-12-07T11:16:58.147Z,28.13
2022-12-07T11:18:38.863Z,25.10
2022-12-07T11:20:26.318Z,26.90
2022-12-07T11:22:02.232Z,29.45
2022-12-07T11:23:49.011Z,29.73
2022-12-07T11:25:32.617Z,26.70
2022-12-07T11:27:18.161Z,27.33
2022-12-07T11:29:11.401Z,23.95
2022-12-07T11:30:54.886Z,25.40
2022-12-07T11:32:46.209Z,24.42
2022-12-07T11:34:32.184Z,30.67
2022-12-07T11:36:19.813Z,28.25
2022-12-07T11:37:59.215Z,27.63
2022-12-07T11:39:38.381Z,32.45
2022-12-07T11:41:15.591Z,26.30
2022-12-07T11:42:56.078Z,27.83
2022-12-07T11:44:35.860Z,26.83
2022-12-07T11:46:14.154Z,26.05
2022-12-07T11:47:50.500Z,28.63
2022-12-07T11:49:32.973Z,26.45
2022-12-07T11:51:11.989Z,27.67
2022-12-07T11:52:49.888Z,33.58
2022-12-07T11:54:27.778Z,31.70
2022-12-07T11:56:09.292Z,31.52
2022-12-07T11:57:48.846Z,27.80
2022-12-07T11:59:29.766Z,29.65
2022-12-07T12:01:16.304Z,25.30
2022-12-07T12:02:56.115Z,28.58
2022-12-07T12:04:36.532Z,32.63
2022-12-07T12:06:10.019Z,45.92
2022-12-07T12:09:53.537Z,36.25
2022-12-07T12:11:48.436Z,25.95
2022-12-07T12:16:04.068Z,29.70
2022-12-07T12:18:00.733Z,28.92
2022-12-07T12:19:38.289Z,27.77
2022-12-07T12:21:17.766Z,26.17
2022-12-07T12:22:58.097Z,31.42
2022-12-07T12:24:37.759Z,28.63
2022-12-07T12:26:18.522Z,28.02
2022-12-07T12:27:55.023Z,31.15
2022-12-07T12:29:34.040Z,33.88
2022-12-07T12:31:12.343Z,38.45
2022-12-07T12:32:47.515Z,36.45
2022-12-07T12:34:35.918Z,38.28
2022-12-07T12:36:25.743Z,44.85
2022-12-07T12:38:28.045Z,30.35
2022-12-07T12:40:38.394Z,33.78
2022-12-07T12:42:21.322Z,31.30
2022-12-07T12:43:55.220Z,28.65
2022-12-07T12:45:29.971Z,39.97
2022-12-07T12:47:06.855Z,35.97
2022-12-07T12:48:40.146Z,33.10
2022-12-07T12:50:25.719Z,32.35
2022-12-07T12:52:01.241Z,32.97
2022-12-07T12:53:34.441Z,33.80
2022-12-07T12:55:19.911Z,34.03
2022-12-07T12:56:58.786Z,42.80
2022-12-07T12:58:35.553Z,38.67
2022-12-07T13:00:19.449Z,35.08
2022-12-07T13:01:54.051Z,34.28
2022-12-07T13:03:32.900Z,33.70
2022-12-07T13:05:21.291Z,37.60
2022-12-07T13:06:55.541Z,39.95
2022-12-07T13:08:34.843Z,43.50
2022-12-07T13:10:29.797Z,34.22
2022-12-07T13:12:07.879Z,50.60
2022-12-07T13:13:41.635Z,34.33
2022-12-07T13:15:35.526Z,38.72
2022-12-07T13:17:11.346Z,37.85
2022-12-07T13:18:46.051Z,36.65
2022-12-07T13:20:48.449Z,39.28
2022-12-07T13:22:50.979Z,32.97
2022-12-07T13:24:24.448Z,42.55
2022-12-07T13:26:06.836Z,34.00
2022-12-07T13:27:43.407Z,35.80
2022-12-07T13:29:21.185Z,33.42
2022-12-07T13:31:12.185Z,33.38
2022-12-07T13:32:53.413Z,36.72
2022-12-07T13:34:33.724Z,36.08
2022-12-07T13:36:20.879Z,38.47
2022-12-07T13:37:54.077Z,49.97
2022-12-07T13:39:29.117Z,36.45
2022-12-07T13:41:07.659Z,40.28
2022-12-07T13:42:41.956Z,41.50
2022-12-07T13:44:17.318Z,41.63
2022-12-07T13:46:02.019Z,41.97
2022-12-07T13:47:42.872Z,41.58
2022-12-07T13:49:22.376Z,49.15
2022-12-07T13:50:58.574Z,44.05
2022-12-07T13:52:32.949Z,41.45
2022-12-07T13:54:13.453Z,36.08
2022-12-07T13:55:54.100Z,66.15
2022-12-07T13:57:31.625Z,42.65
2022-12-07T13:59:07.115Z,61.15
2022-12-07T14:00:42.041Z,49.10
2022-12-07T14:02:23.816Z,38.53
2022-12-07T14:03:57.118Z,35.70
2022-12-07T14:05:32.668Z,40.78
2022-12-07T14:09:19.609Z,35.92
2022-12-07T14:10:59.032Z,36.38
2022-12-07T14:12:33.910Z,29.02
2022-12-07T14:14:08.409Z,42.20
2022-12-07T14:15:42.882Z,33.50
2022-12-07T14:17:20.750Z,32.85
2022-12-07T14:18:54.454Z,32.88
2022-12-07T14:20:33.132Z,33.45
2022-12-07T14:22:10.628Z,30.05
2022-12-07T14:23:44.783Z,37.58
2022-12-07T14:25:27.581Z,36.20
2022-12-07T14:27:00.880Z,36.72
2022-12-07T14:28:36.355Z,40.63
2022-12-07T14:30:19.312Z,33.10
2022-12-07T14:31:54.458Z,35.45
2022-12-07T14:33:29.127Z,28.83
2022-12-07T14:35:05.911Z,27.67
2022-12-07T14:36:40.515Z,35.13
2022-12-07T14:38:14.031Z,28.70
2022-12-07T14:39:47.468Z,41.22
2022-12-07T14:41:43.218Z,50.53
2022-12-07T14:43:19.181Z,43.92
2022-12-07T14:44:52.387Z,36.30
2022-12-07T14:46:26.306Z,24.63
2022-12-07T14:49:53.344Z,27.95
2022-12-07T14:53:32.010Z,40.67
2022-12-07T14:55:06.225Z,48.35
2022-12-07T14:56:41.298Z,45.55
2022-12-07T14:58:16.524Z,43.33
2022-12-07T14:59:49.988Z,60.30
2022-12-07T15:01:23.265Z,61.35
2022-12-07T15:02:57.925Z,55.65
2022-12-07T15:04:32.073Z,82.10
2022-12-07T15:06:07.635Z,86.88
2022-12-07T15:07:41.966Z,91.13
2022-12-07T15:09:15.596Z,81.13
2022-12-07T15:10:49.478Z,76.85
2022-12-07T15:12:25.853Z,93.93
2022-12-07T15:14:10.560Z,66.40
2022-12-07T15:15:44.564Z,63.15
2022-12-07T15:17:28.105Z,84.80
2022-12-07T15:19:27.233Z,85.93
2022-12-07T15:20:56.871Z,151.68
2022-12-07T15:22:36.612Z,191.13
2022-12-07T15:24:12.627Z,145.10
2022-12-07T15:25:47.747Z,181.27
2022-12-07T15:27:20.974Z,174.77
2022-12-07T15:28:56.883Z,160.65
2022-12-07T15:30:31.248Z,154.45
2022-12-07T15:32:04.539Z,155.15
2022-12-07T15:33:38.283Z,143.98
2022-12-07T15:35:11.507Z,137.50
2022-12-07T15:36:45.336Z,133.27
2022-12-07T15:38:28.646Z,143.55
2022-12-07T15:40:13.576Z,154.98
2022-12-07T15:41:48.434Z,153.55
2022-12-07T15:43:38.853Z,190.82
2022-12-07T15:45:14.660Z,188.80
2022-12-07T15:46:47.929Z,159.75
2022-12-07T15:48:29.920Z,180.52
2022-12-07T15:50:03.520Z,304.75
2022-12-07T15:51:37.687Z,192.10
2022-12-07T15:53:10.830Z,144.13
2022-12-07T15:54:44.414Z,90.07
2022-12-07T15:56:17.599Z,90.75
2022-12-07T15:57:51.527Z,79.97
2022-12-07T15:59:25.293Z,75.95
2022-12-07T16:01:00.412Z,56.33
2022-12-07T16:02:39.519Z,63.33
2022-12-07T16:04:13.763Z,69.65
2022-12-07T16:05:51.264Z,65.32
2022-12-07T16:07:24.637Z,50.15
2022-12-07T16:08:58.037Z,37.17
2022-12-07T16:10:32.334Z,35.55
2022-12-07T16:12:06.353Z,44.38
2022-12-07T16:13:41.498Z,45.47
2022-12-07T16:15:14.954Z,47.08
2022-12-07T16:16:50.034Z,48.53
2022-12-07T16:18:23.252Z,43.53
2022-12-07T16:19:58.490Z,53.30
2022-12-07T16:21:31.685Z,56.47
2022-12-07T16:23:05.577Z,55.90
2022-12-07T16:24:39.315Z,73.75
2022-12-07T16:26:15.467Z,72.45
2022-12-07T16:27:48.966Z,87.63
2022-12-07T16:29:24.858Z,82.88
2022-12-07T16:31:03.553Z,57.72
2022-12-07T16:32:38.754Z,59.15
2022-12-07T16:34:12.781Z,62.63
2022-12-07T16:35:46.140Z,53.38
2022-12-07T16:37:19.444Z,52.83
2022-12-07T16:38:52.952Z,55.70
2022-12-07T16:40:26.168Z,57.58
2022-12-07T16:41:59.511Z,58.28
2022-12-07T16:43:33.021Z,59.90
2022-12-07T16:45:19.411Z,52.97
2022-12-07T16:46:54.184Z,56.85
2022-12-07T16:48:29.176Z,55.78
2022-12-07T16:50:02.817Z,52.85
2022-12-07T16:51:38.570Z,50.47
2022-12-07T16:53:12.893Z,56.08
2022-12-07T16:54:46.284Z,48.90
2022-12-07T16:56:20.391Z,74.22
2022-12-07T16:57:54.074Z,66.93
2022-12-07T16:59:27.316Z,68.97
2022-12-07T17:01:00.970Z,59.38
2022-12-07T17:02:34.874Z,84.70
2022-12-07T17:04:13.103Z,75.68
2022-12-07T17:05:47.595Z,76.35
2022-12-07T17:07:21.241Z,75.70
2022-12-07T17:08:54.803Z,81.63
2022-12-07T17:10:28.260Z,77.80
2022-12-07T17:12:01.838Z,88.40
2022-12-07T17:13:52.558Z,89.47
2022-12-07T17:15:25.779Z,80.93
2022-12-07T17:16:59.920Z,117.32
2022-12-07T17:18:35.279Z,134.23
2022-12-07T17:20:11.230Z,135.10
2022-12-07T17:21:46.025Z,117.55
2022-12-07T17:23:19.242Z,110.03
2022-12-07T17:24:52.951Z,103.78
2022-12-07T17:26:34.916Z,101.47
2022-12-07T17:28:09.227Z,108.05
2022-12-07T17:29:43.344Z,106.00
2022-12-07T17:31:18.557Z,109.85
2022-12-07T17:32:54.125Z,164.70
2022-12-07T17:34:27.273Z,143.02
2022-12-07T17:36:02.083Z,151.93
2022-12-07T17:37:35.525Z,145.70
2022-12-07T17:39:10.280Z,126.25
2022-12-07T17:40:43.532Z,97.55
2022-12-07T17:42:35.037Z,117.88
2022-12-07T17:44:11.776Z,121.53
2022-12-07T17:45:45.932Z,138.20
2022-12-07T17:47:19.218Z,111.15
2022-12-07T17:48:52.854Z,71.53
2022-12-07T17:50:40.009Z,71.93
2022-12-07T17:52:31.880Z,77.85
2022-12-07T17:54:05.610Z,65.75
2022-12-07T17:56:03.629Z,89.97
2022-12-07T17:57:32.769Z,75.28
2022-12-07T17:59:07.272Z,107.95
2022-12-07T18:00:41.712Z,86.68
2022-12-07T18:02:15.482Z,105.13
2022-12-07T18:03:48.708Z,104.45
2022-12-07T18:05:22.136Z,131.93
2022-12-07T18:06:57.667Z,155.10
2022-12-07T18:08:39.082Z,134.68
2022-12-07T18:10:12.953Z,117.07
2022-12-07T18:11:47.378Z,106.72
2022-12-07T18:13:38.980Z,117.80
2022-12-07T18:15:12.418Z,102.53
2022-12-07T18:16:46.208Z,59.72
2022-12-07T18:18:20.464Z,46.33
2022-12-07T18:19:54.132Z,69.25
2022-12-07T18:21:29.623Z,61.72
2022-12-07T18:23:02.883Z,59.15
2022-12-07T18:24:38.420Z,75.28
2022-12-07T18:26:13.555Z,79.38
2022-12-07T18:27:46.996Z,52.53
2022-12-07T18:29:20.926Z,82.53
2022-12-07T18:32:49.237Z,88.65
2022-12-07T18:34:22.622Z,93.15
2022-12-07T18:35:55.867Z,81.47
2022-12-07T18:37:29.504Z,92.25
2022-12-07T18:39:05.914Z,127.15
2022-12-07T18:40:41.064Z,161.57
2022-12-07T18:42:14.270Z,152.02
2022-12-07T18:43:47.827Z,144.30
2022-12-07T18:45:21.144Z,136.45
2022-12-07T18:46:54.572Z,152.25
2022-12-07T18:48:27.825Z,143.85
2022-12-07T18:50:02.118Z,136.77
2022-12-07T18:51:36.595Z,127.70
2022-12-07T18:53:10.181Z,120.55
2022-12-07T18:54:48.442Z,108.65
2022-12-07T18:56:25.555Z,108.10
2022-12-07T18:58:00.006Z,117.95
2022-12-07T18:59:47.226Z,93.75
2022-12-07T19:01:20.493Z,138.32
2022-12-07T19:02:54.859Z,74.75
2022-12-07T19:04:28.603Z,78.85
2022-12-07T19:06:07.554Z,63.95
2022-12-07T19:07:40.784Z,60.88
2022-12-07T19:09:14.965Z,99.63
2022-12-07T19:10:48.210Z,75.50
2022-12-07T19:12:23.020Z,53.83
2022-12-07T19:13:56.204Z,52.97
2022-12-07T19:15:29.581Z,49.78
2022-12-07T19:17:06.389Z,46.45
2022-12-07T19:18:39.983Z,48.72
2022-12-07T19:20:16.265Z,45.40
2022-12-07T19:21:50.228Z,36.00
2022-12-07T19:23:25.439Z,43.40
2022-12-07T19:24:58.706Z,38.63
2022-12-07T19:26:32.125Z,62.72
2022-12-07T19:28:07.119Z,69.20
2022-12-07T19:29:40.533Z,80.10
2022-12-07T19:31:14.773Z,72.40
2022-12-07T19:32:48.159Z,62.75
2022-12-07T19:34:22.178Z,51.90
2022-12-07T19:35:55.583Z,42.85
2022-12-07T19:37:29.090Z,47.20
2022-12-07T19:39:02.690Z,75.18
2022-12-07T19:40:36.476Z,79.90
2022-12-07T19:42:09.844Z,94.80
2022-12-07T19:43:44.406Z,90.25
2022-12-07T19:45:17.991Z,93.95
2022-12-07T19:46:52.426Z,87.13
2022-12-07T19:48:25.944Z,94.45
2022-12-07T19:49:59.068Z,99.65
2022-12-07T19:51:33.239Z,86.72
2022-12-07T19:53:06.872Z,139.82
2022-12-07T19:54:44.982Z,113.95
2022-12-07T19:56:19.358Z,61.20
2022-12-07T19:57:52.724Z,74.22
2022-12-07T19:59:29.595Z,64.95
2022-12-07T20:01:04.499Z,61.53
2022-12-07T20:02:37.831Z,67.80
2022-12-07T20:04:13.359Z,64.00
2022-12-07T20:05:46.891Z,64.05
2022-12-07T20:07:20.194Z,79.05
2022-12-07T20:08:53.530Z,77.80
2022-12-07T20:10:27.111Z,69.38
2022-12-07T20:12:18.091Z,71.70
2022-12-07T20:13:50.468Z,67.20
2022-12-07T20:15:25.065Z,63.70
2022-12-07T20:16:59.182Z,68.53
2022-12-07T20:18:33.041Z,68.47
2022-12-07T20:20:07.757Z,83.03
2022-12-07T20:21:42.043Z,72.57
2022-12-07T20:23:15.969Z,190.25
2022-12-07T20:24:49.808Z,125.18
2022-12-07T20:26:22.981Z,110.78
2022-12-07T20:27:56.448Z,99.63
2022-12-07T20:29:29.661Z,84.32
2022-12-07T20:31:06.045Z,71.95
2022-12-07T20:32:39.669Z,54.30
2022-12-07T20:34:13.473Z,59.40
2022-12-07T20:35:47.759Z,78.28
2022-12-07T20:37:21.295Z,74.82
2022-12-07T20:38:55.442Z,84.28
2022-12-07T20:40:28.571Z,68.53
2022-12-07T20:42:19.646Z,57.53
2022-12-07T20:43:53.025Z,72.57
2022-12-07T20:45:26.502Z,76.28
2022-12-07T20:47:01.219Z,99.70
2022-12-07T20:48:34.411Z,113.50
2022-12-07T20:50:11.329Z,83.88
2022-12-07T20:51:45.170Z,63.92
2022-12-07T20:53:18.488Z,57.20
2022-12-07T20:54:51.996Z,64.95
2022-12-07T20:56:28.912Z,73.50
2022-12-07T20:58:02.222Z,50.00
2022-12-07T20:59:39.888Z,47.90